Weingarten, Missouri
Current Conditions -  °F | °C
As of 12:15 PM on Wednesday 28 Jan 2015 (Local Time) from KSAR Reporting Station
Clear Clear  
Wind Chill: 32°   Ceiling: Unl
Heat Index: 40°   Visibility: 10mi
Dew Point: 30°   Wind: 14mph
Humidity: 69%   Direction: 160°SSE
Pressure: 30.21"   Gusts: 20mph
Location:  37.9762°N, 90.0499°W
Report Text: KSAR 281815Z AUTO 16012G17KT 10SM CLR 04/M01 A3021 RMK AO2 T00431010
Loading
Personal Weather Stations






























Interactive Weather Map New forecast layout! Learn more

10-Day Weather Forecast

Advertisements
Track Severe Weather on mobile